sensor_id;sensor_type;location;lat;lon;timestamp;pressure;altitude;pressure_sealevel;temperature;humidity
72909;BME280;61051;62.624;17.950;2023-05-28T00:02:04;100779.16;;;10.40;70.81
72909;BME280;61051;62.624;17.950;2023-05-28T00:04:32;100779.60;;;10.28;70.88
72909;BME280;61051;62.624;17.950;2023-05-28T00:07:01;100775.83;;;10.29;71.45
72909;BME280;61051;62.624;17.950;2023-05-28T00:09:29;100776.55;;;10.15;71.94
72909;BME280;61051;62.624;17.950;2023-05-28T00:11:57;100772.69;;;10.23;72.08
72909;BME280;61051;62.624;17.950;2023-05-28T00:14:25;100771.85;;;10.19;73.47
72909;BME280;61051;62.624;17.950;2023-05-28T00:16:54;100767.09;;;10.13;73.36
72909;BME280;61051;62.624;17.950;2023-05-28T00:19:22;100762.92;;;10.16;73.72
72909;BME280;61051;62.624;17.950;2023-05-28T00:21:51;100754.16;;;10.00;73.60
72909;BME280;61051;62.624;17.950;2023-05-28T00:24:20;100744.39;;;10.08;73.42
72909;BME280;61051;62.624;17.950;2023-05-28T00:26:49;100740.25;;;10.14;72.92
72909;BME280;61051;62.624;17.950;2023-05-28T00:29:18;100735.52;;;10.29;72.76
72909;BME280;61051;62.624;17.950;2023-05-28T00:31:47;100739.72;;;10.41;72.42
72909;BME280;61051;62.624;17.950;2023-05-28T00:34:15;100743.72;;;10.31;72.74
72909;BME280;61051;62.624;17.950;2023-05-28T00:36:43;100743.28;;;10.38;72.60
72909;BME280;61051;62.624;17.950;2023-05-28T00:39:11;100742.79;;;10.41;72.52
72909;BME280;61051;62.624;17.950;2023-05-28T00:41:42;100748.78;;;10.42;72.86
72909;BME280;61051;62.624;17.950;2023-05-28T00:44:10;100744.28;;;10.27;73.12
72909;BME280;61051;62.624;17.950;2023-05-28T00:46:41;100745.87;;;10.40;73.24
72909;BME280;61051;62.624;17.950;2023-05-28T00:49:11;100742.48;;;10.33;73.43
72909;BME280;61051;62.624;17.950;2023-05-28T00:51:40;100742.43;;;10.23;72.89
72909;BME280;61051;62.624;17.950;2023-05-28T00:54:09;100735.36;;;10.25;72.47
72909;BME280;61051;62.624;17.950;2023-05-28T00:56:38;100734.87;;;10.29;73.14
72909;BME280;61051;62.624;17.950;2023-05-28T00:59:13;100730.81;;;10.29;73.31
72909;BME280;61051;62.624;17.950;2023-05-28T01:01:41;100731.77;;;10.29;72.84
72909;BME280;61051;62.624;17.950;2023-05-28T01:04:11;100726.14;;;10.24;73.26
72909;BME280;61051;62.624;17.950;2023-05-28T01:06:40;100728.69;;;10.21;73.37
72909;BME280;61051;62.624;17.950;2023-05-28T01:09:08;100725.63;;;10.11;73.79
72909;BME280;61051;62.624;17.950;2023-05-28T01:11:37;100716.93;;;10.11;73.89
72909;BME280;61051;62.624;17.950;2023-05-28T01:14:09;100706.40;;;10.08;74.24
72909;BME280;61051;62.624;17.950;2023-05-28T01:16:39;100708.83;;;9.94;74.44
72909;BME280;61051;62.624;17.950;2023-05-28T01:19:09;100695.71;;;9.92;74.49
72909;BME280;61051;62.624;17.950;2023-05-28T01:21:40;100701.78;;;9.93;74.38
72909;BME280;61051;62.624;17.950;2023-05-28T01:24:09;100700.43;;;10.06;73.60
72909;BME280;61051;62.624;17.950;2023-05-28T01:26:39;100705.43;;;10.00;73.49
72909;BME280;61051;62.624;17.950;2023-05-28T01:29:17;100709.59;;;10.07;73.42
72909;BME280;61051;62.624;17.950;2023-05-28T01:31:46;100706.47;;;9.88;73.97
72909;BME280;61051;62.624;17.950;2023-05-28T01:34:14;100704.26;;;9.81;73.87
72909;BME280;61051;62.624;17.950;2023-05-28T01:36:46;100701.39;;;9.91;74.05
72909;BME280;61051;62.624;17.950;2023-05-28T01:39:17;100700.56;;;9.93;73.72
72909;BME280;61051;62.624;17.950;2023-05-28T01:41:47;100700.43;;;9.97;73.11
72909;BME280;61051;62.624;17.950;2023-05-28T01:44:18;100694.35;;;9.93;73.08
72909;BME280;61051;62.624;17.950;2023-05-28T01:46:48;100688.61;;;10.03;72.54
72909;BME280;61051;62.624;17.950;2023-05-28T01:49:18;100688.28;;;10.11;72.20
72909;BME280;61051;62.624;17.950;2023-05-28T01:51:47;100686.82;;;10.12;72.56
72909;BME280;61051;62.624;17.950;2023-05-28T01:54:16;100683.89;;;10.14;71.95
72909;BME280;61051;62.624;17.950;2023-05-28T01:56:44;100691.10;;;10.20;72.55
72909;BME280;61051;62.624;17.950;2023-05-28T01:59:12;100695.19;;;10.17;71.15
72909;BME280;61051;62.624;17.950;2023-05-28T02:01:41;100699.33;;;10.38;70.48
72909;BME280;61051;62.624;17.950;2023-05-28T02:04:09;100695.26;;;10.35;70.17
72909;BME280;61051;62.624;17.950;2023-05-28T02:06:38;100695.08;;;10.33;70.74
72909;BME280;61051;62.624;17.950;2023-05-28T02:09:06;100705.70;;;10.29;70.92
72909;BME280;61051;62.624;17.950;2023-05-28T02:11:34;100699.57;;;10.16;70.42
72909;BME280;61051;62.624;17.950;2023-05-28T02:14:02;100700.94;;;10.32;70.64
72909;BME280;61051;62.624;17.950;2023-05-28T02:16:31;100710.28;;;10.19;70.35
72909;BME280;61051;62.624;17.950;2023-05-28T02:18:59;100710.22;;;10.26;70.38
72909;BME280;61051;62.624;17.950;2023-05-28T02:21:27;100705.28;;;10.28;69.50
72909;BME280;61051;62.624;17.950;2023-05-28T02:23:56;100701.64;;;10.33;69.31
72909;BME280;61051;62.624;17.950;2023-05-28T02:26:25;100703.09;;;10.42;69.23
72909;BME280;61051;62.624;17.950;2023-05-28T02:28:53;100709.30;;;10.45;68.04
72909;BME280;61051;62.624;17.950;2023-05-28T02:31:21;100709.55;;;10.49;67.49
72909;BME280;61051;62.624;17.950;2023-05-28T02:33:50;100712.63;;;10.64;67.22
72909;BME280;61051;62.624;17.950;2023-05-28T02:36:20;100711.92;;;10.53;68.05
72909;BME280;61051;62.624;17.950;2023-05-28T02:38:48;100707.30;;;10.59;67.04
72909;BME280;61051;62.624;17.950;2023-05-28T02:41:16;100716.70;;;10.46;66.82
72909;BME280;61051;62.624;17.950;2023-05-28T02:43:44;100712.05;;;10.51;66.61
72909;BME280;61051;62.624;17.950;2023-05-28T02:46:13;100709.58;;;10.61;66.76
72909;BME280;61051;62.624;17.950;2023-05-28T02:48:41;100718.93;;;10.51;67.94
72909;BME280;61051;62.624;17.950;2023-05-28T02:51:09;100718.08;;;10.45;66.90
72909;BME280;61051;62.624;17.950;2023-05-28T02:53:37;100720.14;;;10.55;66.55
72909;BME280;61051;62.624;17.950;2023-05-28T02:56:06;100722.41;;;10.52;66.02
72909;BME280;61051;62.624;17.950;2023-05-28T02:58:35;100723.46;;;10.69;65.17
72909;BME280;61051;62.624;17.950;2023-05-28T03:01:03;100721.92;;;10.85;65.43
72909;BME280;61051;62.624;17.950;2023-05-28T03:03:32;100724.93;;;10.68;65.23
72909;BME280;61051;62.624;17.950;2023-05-28T03:06:00;100726.31;;;10.73;65.31
72909;BME280;61051;62.624;17.950;2023-05-28T03:08:28;100731.71;;;10.72;65.52
72909;BME280;61051;62.624;17.950;2023-05-28T03:10:56;100727.30;;;10.72;65.38
72909;BME280;61051;62.624;17.950;2023-05-28T03:13:25;100726.98;;;10.77;65.45
72909;BME280;61051;62.624;17.950;2023-05-28T03:15:53;100728.52;;;10.67;64.83
72909;BME280;61051;62.624;17.950;2023-05-28T03:18:21;100731.56;;;10.65;64.90
72909;BME280;61051;62.624;17.950;2023-05-28T03:20:50;100727.71;;;10.64;66.27
72909;BME280;61051;62.624;17.950;2023-05-28T03:23:19;100723.95;;;10.56;66.36
72909;BME280;61051;62.624;17.950;2023-05-28T03:25:48;100720.39;;;10.56;64.93
72909;BME280;61051;62.624;17.950;2023-05-28T03:28:16;100718.20;;;10.59;64.87
72909;BME280;61051;62.624;17.950;2023-05-28T03:30:44;100721.68;;;10.68;65.06
72909;BME280;61051;62.624;17.950;2023-05-28T03:33:13;100722.51;;;10.73;64.68
72909;BME280;61051;62.624;17.950;2023-05-28T03:35:42;100724.58;;;10.83;64.06
72909;BME280;61051;62.624;17.950;2023-05-28T03:38:10;100726.07;;;10.90;64.20
72909;BME280;61051;62.624;17.950;2023-05-28T03:40:38;100719.86;;;11.06;63.07
72909;BME280;61051;62.624;17.950;2023-05-28T03:43:07;100723.49;;;11.11;63.21
72909;BME280;61051;62.624;17.950;2023-05-28T03:45:36;100721.35;;;11.20;61.96
72909;BME280;61051;62.624;17.950;2023-05-28T03:48:05;100726.96;;;11.25;61.78
72909;BME280;61051;62.624;17.950;2023-05-28T03:50:34;100727.85;;;11.23;61.62
72909;BME280;61051;62.624;17.950;2023-05-28T03:53:03;100720.37;;;11.22;61.64
72909;BME280;61051;62.624;17.950;2023-05-28T03:55:32;100730.92;;;11.40;61.38
72909;BME280;61051;62.624;17.950;2023-05-28T03:58:01;100727.83;;;11.31;61.31
72909;BME280;61051;62.624;17.950;2023-05-28T04:03:17;100722.19;;;11.36;61.15
72909;BME280;61051;62.624;17.950;2023-05-28T04:05:45;100721.39;;;11.48;61.52
72909;BME280;61051;62.624;17.950;2023-05-28T04:08:14;100717.95;;;11.45;61.34
72909;BME280;61051;62.624;17.950;2023-05-28T04:10:42;100711.99;;;11.45;60.65
72909;BME280;61051;62.624;17.950;2023-05-28T04:13:10;100707.24;;;11.49;60.89
72909;BME280;61051;62.624;17.950;2023-05-28T04:15:38;100702.33;;;11.60;61.08
72909;BME280;61051;62.624;17.950;2023-05-28T04:18:07;100701.42;;;11.59;61.22
72909;BME280;61051;62.624;17.950;2023-05-28T04:20:35;100705.92;;;11.60;60.39
72909;BME280;61051;62.624;17.950;2023-05-28T04:23:03;100705.69;;;11.56;60.58
72909;BME280;61051;62.624;17.950;2023-05-28T04:25:31;100707.43;;;11.57;61.27
72909;BME280;61051;62.624;17.950;2023-05-28T04:28:00;100713.85;;;11.64;60.66
72909;BME280;61051;62.624;17.950;2023-05-28T04:30:28;100714.88;;;11.65;60.23
72909;BME280;61051;62.624;17.950;2023-05-28T04:32:56;100719.68;;;11.73;60.01
72909;BME280;61051;62.624;17.950;2023-05-28T04:35:24;100715.62;;;11.97;60.44
72909;BME280;61051;62.624;17.950;2023-05-28T04:37:54;100714.63;;;11.91;59.54
72909;BME280;61051;62.624;17.950;2023-05-28T04:40:23;100715.07;;;11.98;59.39
72909;BME280;61051;62.624;17.950;2023-05-28T04:42:52;100715.52;;;11.97;58.65
72909;BME280;61051;62.624;17.950;2023-05-28T04:45:21;100722.56;;;12.08;59.18
72909;BME280;61051;62.624;17.950;2023-05-28T04:47:49;100719.98;;;12.23;58.85
72909;BME280;61051;62.624;17.950;2023-05-28T04:50:17;100721.54;;;12.23;58.13
72909;BME280;61051;62.624;17.950;2023-05-28T04:52:45;100718.79;;;12.27;58.51
72909;BME280;61051;62.624;17.950;2023-05-28T04:55:14;100718.68;;;12.38;58.66
72909;BME280;61051;62.624;17.950;2023-05-28T04:57:42;100721.64;;;12.26;59.03
72909;BME280;61051;62.624;17.950;2023-05-28T05:00:12;100718.34;;;12.42;58.39
72909;BME280;61051;62.624;17.950;2023-05-28T05:02:41;100717.80;;;12.32;59.70
72909;BME280;61051;62.624;17.950;2023-05-28T05:05:09;100722.17;;;12.45;59.25
72909;BME280;61051;62.624;17.950;2023-05-28T05:07:38;100721.61;;;12.34;57.62
72909;BME280;61051;62.624;17.950;2023-05-28T05:10:09;100723.19;;;12.55;58.01
72909;BME280;61051;62.624;17.950;2023-05-28T05:12:37;100725.09;;;12.67;58.07
72909;BME280;61051;62.624;17.950;2023-05-28T05:15:06;100725.69;;;12.72;58.72
72909;BME280;61051;62.624;17.950;2023-05-28T05:17:35;100723.73;;;12.69;58.22
72909;BME280;61051;62.624;17.950;2023-05-28T05:20:05;100725.90;;;12.81;58.56
72909;BME280;61051;62.624;17.950;2023-05-28T05:22:33;100722.75;;;12.83;57.73
72909;BME280;61051;62.624;17.950;2023-05-28T05:25:02;100720.95;;;12.83;57.62
72909;BME280;61051;62.624;17.950;2023-05-28T05:27:30;100724.67;;;12.75;57.18
72909;BME280;61051;62.624;17.950;2023-05-28T05:29:58;100724.01;;;12.86;57.47
72909;BME280;61051;62.624;17.950;2023-05-28T05:32:26;100726.71;;;13.02;56.97
72909;BME280;61051;62.624;17.950;2023-05-28T05:34:55;100725.87;;;13.16;57.22
72909;BME280;61051;62.624;17.950;2023-05-28T05:37:23;100728.79;;;13.15;56.77
72909;BME280;61051;62.624;17.950;2023-05-28T05:39:52;100725.53;;;13.19;57.30
72909;BME280;61051;62.624;17.950;2023-05-28T05:42:21;100723.78;;;13.27;56.67
72909;BME280;61051;62.624;17.950;2023-05-28T05:44:52;100722.74;;;13.36;54.90
72909;BME280;61051;62.624;17.950;2023-05-28T05:47:21;100719.62;;;13.42;54.80
72909;BME280;61051;62.624;17.950;2023-05-28T05:49:50;100721.21;;;13.40;54.15
72909;BME280;61051;62.624;17.950;2023-05-28T05:52:19;100717.68;;;13.58;55.88
72909;BME280;61051;62.624;17.950;2023-05-28T05:54:48;100713.50;;;13.53;54.58
72909;BME280;61051;62.624;17.950;2023-05-28T05:57:16;100719.24;;;13.46;53.64
72909;BME280;61051;62.624;17.950;2023-05-28T05:59:44;100719.61;;;13.64;53.95
72909;BME280;61051;62.624;17.950;2023-05-28T06:02:12;100726.82;;;13.66;51.72
72909;BME280;61051;62.624;17.950;2023-05-28T06:04:40;100725.50;;;13.90;51.59
72909;BME280;61051;62.624;17.950;2023-05-28T06:07:09;100722.93;;;13.87;52.01
72909;BME280;61051;62.624;17.950;2023-05-28T06:09:37;100727.83;;;13.73;53.43
72909;BME280;61051;62.624;17.950;2023-05-28T06:12:05;100726.34;;;13.93;51.74
72909;BME280;61051;62.624;17.950;2023-05-28T06:14:35;100727.08;;;13.83;50.82
72909;BME280;61051;62.624;17.950;2023-05-28T06:17:03;100724.83;;;13.89;48.61
72909;BME280;61051;62.624;17.950;2023-05-28T06:19:31;100727.76;;;13.84;49.94
72909;BME280;61051;62.624;17.950;2023-05-28T06:22:00;100725.99;;;14.11;47.75
72909;BME280;61051;62.624;17.950;2023-05-28T06:24:28;100720.22;;;14.17;46.85
72909;BME280;61051;62.624;17.950;2023-05-28T06:26:56;100724.42;;;13.92;48.77
72909;BME280;61051;62.624;17.950;2023-05-28T06:29:26;100725.46;;;13.81;47.03
72909;BME280;61051;62.624;17.950;2023-05-28T06:31:54;100730.25;;;13.48;47.05
72909;BME280;61051;62.624;17.950;2023-05-28T06:34:27;100729.81;;;13.63;48.55
72909;BME280;61051;62.624;17.950;2023-05-28T06:36:56;100721.82;;;13.51;48.59
72909;BME280;61051;62.624;17.950;2023-05-28T06:39:24;100720.73;;;13.88;48.71
72909;BME280;61051;62.624;17.950;2023-05-28T06:41:54;100720.77;;;14.49;47.36
72909;BME280;61051;62.624;17.950;2023-05-28T06:44:22;100719.07;;;14.64;45.90
72909;BME280;61051;62.624;17.950;2023-05-28T06:46:51;100723.90;;;14.87;46.18
72909;BME280;61051;62.624;17.950;2023-05-28T06:49:20;100724.57;;;14.93;45.87
72909;BME280;61051;62.624;17.950;2023-05-28T06:51:48;100724.11;;;14.82;46.08
72909;BME280;61051;62.624;17.950;2023-05-28T06:54:16;100723.64;;;14.47;46.11
72909;BME280;61051;62.624;17.950;2023-05-28T06:56:44;100725.42;;;14.33;46.62
72909;BME280;61051;62.624;17.950;2023-05-28T06:59:13;100722.92;;;14.53;45.78
72909;BME280;61051;62.624;17.950;2023-05-28T07:01:41;100729.48;;;14.94;44.87
72909;BME280;61051;62.624;17.950;2023-05-28T07:04:09;100724.47;;;15.20;44.20
72909;BME280;61051;62.624;17.950;2023-05-28T07:06:37;100724.73;;;15.42;44.08
72909;BME280;61051;62.624;17.950;2023-05-28T07:09:05;100724.76;;;15.95;42.98
72909;BME280;61051;62.624;17.950;2023-05-28T07:11:34;100726.25;;;15.65;41.51
72909;BME280;61051;62.624;17.950;2023-05-28T07:14:02;100729.65;;;15.00;43.86
72909;BME280;61051;62.624;17.950;2023-05-28T07:16:30;100728.63;;;14.57;44.97
72909;BME280;61051;62.624;17.950;2023-05-28T07:18:58;100733.47;;;14.32;46.40
72909;BME280;61051;62.624;17.950;2023-05-28T07:21:27;100732.62;;;14.28;45.69
72909;BME280;61051;62.624;17.950;2023-05-28T07:23:55;100732.94;;;14.18;45.94
72909;BME280;61051;62.624;17.950;2023-05-28T07:26:23;100730.46;;;14.38;46.30
72909;BME280;61051;62.624;17.950;2023-05-28T07:28:52;100729.32;;;14.98;44.77
72909;BME280;61051;62.624;17.950;2023-05-28T07:31:21;100730.00;;;15.71;43.14
72909;BME280;61051;62.624;17.950;2023-05-28T07:33:49;100724.44;;;16.09;41.12
72909;BME280;61051;62.624;17.950;2023-05-28T07:36:17;100731.56;;;15.65;42.16
72909;BME280;61051;62.624;17.950;2023-05-28T07:38:45;100737.39;;;15.34;40.79
72909;BME280;61051;62.624;17.950;2023-05-28T07:41:14;100738.39;;;15.17;42.46
72909;BME280;61051;62.624;17.950;2023-05-28T07:43:42;100740.57;;;15.32;41.90
72909;BME280;61051;62.624;17.950;2023-05-28T07:46:10;100742.32;;;15.65;42.47
72909;BME280;61051;62.624;17.950;2023-05-28T07:48:38;100743.78;;;15.40;41.69
72909;BME280;61051;62.624;17.950;2023-05-28T07:51:06;100740.03;;;15.02;42.20
72909;BME280;61051;62.624;17.950;2023-05-28T07:53:34;100742.68;;;15.16;42.50
72909;BME280;61051;62.624;17.950;2023-05-28T07:56:03;100745.09;;;14.98;42.67
72909;BME280;61051;62.624;17.950;2023-05-28T07:58:31;100742.32;;;14.76;44.65
72909;BME280;61051;62.624;17.950;2023-05-28T08:00:59;100742.43;;;14.55;45.16
72909;BME280;61051;62.624;17.950;2023-05-28T08:03:27;100743.68;;;14.41;44.39
72909;BME280;61051;62.624;17.950;2023-05-28T08:05:55;100748.86;;;14.18;44.43
72909;BME280;61051;62.624;17.950;2023-05-28T08:08:24;100748.96;;;14.15;45.93
72909;BME280;61051;62.624;17.950;2023-05-28T08:10:53;100751.06;;;14.22;45.69
72909;BME280;61051;62.624;17.950;2023-05-28T08:13:22;100754.77;;;14.21;44.79
72909;BME280;61051;62.624;17.950;2023-05-28T08:15:50;100754.54;;;14.63;43.45
72909;BME280;61051;62.624;17.950;2023-05-28T08:18:18;100749.78;;;15.39;43.31
72909;BME280;61051;62.624;17.950;2023-05-28T08:20:46;100753.10;;;15.69;40.75
72909;BME280;61051;62.624;17.950;2023-05-28T08:23:14;100752.82;;;15.67;40.37
72909;BME280;61051;62.624;17.950;2023-05-28T08:25:44;100752.93;;;15.28;40.85
72909;BME280;61051;62.624;17.950;2023-05-28T08:28:16;100750.70;;;15.49;40.51
72909;BME280;61051;62.624;17.950;2023-05-28T08:30:44;100749.80;;;15.86;39.55
72909;BME280;61051;62.624;17.950;2023-05-28T08:33:12;100747.29;;;15.92;39.66
72909;BME280;61051;62.624;17.950;2023-05-28T08:35:41;100744.46;;;15.63;39.80
72909;BME280;61051;62.624;17.950;2023-05-28T08:38:09;100740.82;;;16.07;39.80
72909;BME280;61051;62.624;17.950;2023-05-28T08:40:40;100729.62;;;16.86;37.92
72909;BME280;61051;62.624;17.950;2023-05-28T08:43:10;100730.10;;;17.67;37.44
72909;BME280;61051;62.624;17.950;2023-05-28T08:45:38;100739.39;;;18.11;36.40
72909;BME280;61051;62.624;17.950;2023-05-28T08:48:07;100732.79;;;18.27;35.57
72909;BME280;61051;62.624;17.950;2023-05-28T08:50:38;100731.27;;;17.87;35.59
72909;BME280;61051;62.624;17.950;2023-05-28T08:53:10;100731.07;;;17.56;35.22
72909;BME280;61051;62.624;17.950;2023-05-28T08:55:42;100735.82;;;16.84;36.06
72909;BME280;61051;62.624;17.950;2023-05-28T08:58:12;100740.34;;;16.13;35.96
72909;BME280;61051;62.624;17.950;2023-05-28T09:00:42;100751.53;;;15.58;38.56
72909;BME280;61051;62.624;17.950;2023-05-28T09:03:11;100757.26;;;15.40;39.05
72909;BME280;61051;62.624;17.950;2023-05-28T09:05:39;100760.91;;;15.07;37.77
72909;BME280;61051;62.624;17.950;2023-05-28T09:08:09;100760.89;;;14.91;39.22
72909;BME280;61051;62.624;17.950;2023-05-28T09:10:38;100763.21;;;14.88;39.51
72909;BME280;61051;62.624;17.950;2023-05-28T09:13:08;100767.34;;;14.96;39.47
72909;BME280;61051;62.624;17.950;2023-05-28T09:15:37;100768.01;;;14.98;38.66
72909;BME280;61051;62.624;17.950;2023-05-28T09:18:05;100770.84;;;15.25;38.48
72909;BME280;61051;62.624;17.950;2023-05-28T09:20:34;100779.15;;;15.76;37.95
72909;BME280;61051;62.624;17.950;2023-05-28T09:23:04;100790.27;;;15.97;37.33
72909;BME280;61051;62.624;17.950;2023-05-28T09:25:35;100838.43;;;14.78;40.04
72909;BME280;61051;62.624;17.950;2023-05-28T09:28:04;100835.85;;;13.85;41.75
72909;BME280;61051;62.624;17.950;2023-05-28T09:30:34;100853.74;;;13.23;43.24
72909;BME280;61051;62.624;17.950;2023-05-28T09:33:04;100875.44;;;12.21;43.72
72909;BME280;61051;62.624;17.950;2023-05-28T09:35:34;100885.72;;;11.81;45.31
72909;BME280;61051;62.624;17.950;2023-05-28T09:38:05;100887.68;;;11.33;47.30
72909;BME280;61051;62.624;17.950;2023-05-28T09:40:37;100884.13;;;11.05;48.52
72909;BME280;61051;62.624;17.950;2023-05-28T09:43:06;100894.31;;;11.15;47.76
72909;BME280;61051;62.624;17.950;2023-05-28T09:45:35;100900.89;;;11.25;48.04
72909;BME280;61051;62.624;17.950;2023-05-28T09:48:03;100902.50;;;11.58;47.85
72909;BME280;61051;62.624;17.950;2023-05-28T09:50:32;100895.83;;;11.64;46.72
72909;BME280;61051;62.624;17.950;2023-05-28T09:53:03;100897.60;;;12.00;46.12
72909;BME280;61051;62.624;17.950;2023-05-28T09:55:32;100890.08;;;12.10;45.75
72909;BME280;61051;62.624;17.950;2023-05-28T09:58:03;100889.75;;;12.32;45.68
72909;BME280;61051;62.624;17.950;2023-05-28T10:03:22;100890.08;;;12.29;45.03
72909;BME280;61051;62.624;17.950;2023-05-28T10:05:56;100887.57;;;12.60;44.73
72909;BME280;61051;62.624;17.950;2023-05-28T10:08:27;100876.42;;;12.64;44.32
72909;BME280;61051;62.624;17.950;2023-05-28T10:10:55;100880.31;;;12.94;44.35
72909;BME280;61051;62.624;17.950;2023-05-28T10:13:23;100888.36;;;13.05;43.69
72909;BME280;61051;62.624;17.950;2023-05-28T10:15:53;100888.70;;;13.39;43.50
72909;BME280;61051;62.624;17.950;2023-05-28T10:18:28;100890.55;;;13.95;43.80
72909;BME280;61051;62.624;17.950;2023-05-28T10:20:57;100891.33;;;14.36;41.85
72909;BME280;61051;62.624;17.950;2023-05-28T10:23:27;100897.46;;;14.89;39.48
72909;BME280;61051;62.624;17.950;2023-05-28T10:25:56;100899.65;;;15.07;39.17
72909;BME280;61051;62.624;17.950;2023-05-28T10:28:24;100912.27;;;15.29;38.20
72909;BME280;61051;62.624;17.950;2023-05-28T10:31:02;100924.24;;;14.85;38.62
72909;BME280;61051;62.624;17.950;2023-05-28T10:33:32;100926.24;;;14.41;39.32
72909;BME280;61051;62.624;17.950;2023-05-28T10:36:09;100916.29;;;14.21;40.55
72909;BME280;61051;62.624;17.950;2023-05-28T10:38:42;100912.49;;;15.09;39.48
72909;BME280;61051;62.624;17.950;2023-05-28T10:41:17;100916.01;;;15.81;37.58
72909;BME280;61051;62.624;17.950;2023-05-28T10:43:47;100922.86;;;16.60;37.32
72909;BME280;61051;62.624;17.950;2023-05-28T10:46:17;100919.62;;;17.32;34.76
72909;BME280;61051;62.624;17.950;2023-05-28T10:49:19;100916.69;;;16.82;34.03
72909;BME280;61051;62.624;17.950;2023-05-28T10:51:56;100926.44;;;16.65;34.74
72909;BME280;61051;62.624;17.950;2023-05-28T10:54:40;100914.75;;;17.27;33.47
72909;BME280;61051;62.624;17.950;2023-05-28T10:57:10;100906.20;;;17.93;32.48
72909;BME280;61051;62.624;17.950;2023-05-28T10:59:43;100906.95;;;18.54;30.14
72909;BME280;61051;62.624;17.950;2023-05-28T11:02:12;100910.72;;;18.81;29.91
72909;BME280;61051;62.624;17.950;2023-05-28T11:04:43;100916.27;;;18.44;30.54
72909;BME280;61051;62.624;17.950;2023-05-28T11:07:12;100915.95;;;18.67;30.43
72909;BME280;61051;62.624;17.950;2023-05-28T11:09:41;100923.26;;;18.20;31.70
72909;BME280;61051;62.624;17.950;2023-05-28T11:12:12;100924.15;;;17.58;31.40
72909;BME280;61051;62.624;17.950;2023-05-28T11:14:41;100930.97;;;17.64;29.82
72909;BME280;61051;62.624;17.950;2023-05-28T11:17:10;100933.35;;;16.96;31.29
72909;BME280;61051;62.624;17.950;2023-05-28T11:19:41;100936.17;;;16.69;32.16
72909;BME280;61051;62.624;17.950;2023-05-28T11:22:11;100945.13;;;16.66;27.21
72909;BME280;61051;62.624;17.950;2023-05-28T11:24:57;100935.57;;;15.75;29.64
72909;BME280;61051;62.624;17.950;2023-05-28T11:27:28;100929.88;;;15.17;30.83
72909;BME280;61051;62.624;17.950;2023-05-28T11:29:59;100931.82;;;14.61;32.10
72909;BME280;61051;62.624;17.950;2023-05-28T11:32:28;100941.04;;;14.47;32.86
72909;BME280;61051;62.624;17.950;2023-05-28T11:35:00;100943.66;;;14.24;31.96
72909;BME280;61051;62.624;17.950;2023-05-28T11:37:32;100942.32;;;14.24;33.53
72909;BME280;61051;62.624;17.950;2023-05-28T11:40:03;100948.79;;;14.32;32.64
72909;BME280;61051;62.624;17.950;2023-05-28T11:42:33;100947.77;;;14.66;32.26
72909;BME280;61051;62.624;17.950;2023-05-28T11:45:01;100949.25;;;14.97;31.35
72909;BME280;61051;62.624;17.950;2023-05-28T11:47:33;100941.64;;;15.54;31.52
72909;BME280;61051;62.624;17.950;2023-05-28T11:50:06;100941.04;;;15.93;30.31
72909;BME280;61051;62.624;17.950;2023-05-28T11:52:34;100948.39;;;16.24;30.72
72909;BME280;61051;62.624;17.950;2023-05-28T11:55:05;100952.02;;;16.65;30.45
72909;BME280;61051;62.624;17.950;2023-05-28T11:57:34;100956.85;;;16.66;30.19
72909;BME280;61051;62.624;17.950;2023-05-28T12:00:04;100946.97;;;16.47;29.50
72909;BME280;61051;62.624;17.950;2023-05-28T12:02:34;100960.28;;;15.87;30.45
72909;BME280;61051;62.624;17.950;2023-05-28T12:05:02;100955.95;;;15.24;30.77
72909;BME280;61051;62.624;17.950;2023-05-28T12:07:33;100960.36;;;15.04;31.13
72909;BME280;61051;62.624;17.950;2023-05-28T12:10:04;100953.04;;;14.81;30.50
72909;BME280;61051;62.624;17.950;2023-05-28T12:12:33;100953.36;;;14.50;30.44
72909;BME280;61051;62.624;17.950;2023-05-28T12:15:04;100948.85;;;14.32;31.88
72909;BME280;61051;62.624;17.950;2023-05-28T12:17:34;100968.78;;;14.34;31.05
72909;BME280;61051;62.624;17.950;2023-05-28T12:20:06;100969.17;;;14.22;31.63
72909;BME280;61051;62.624;17.950;2023-05-28T12:22:35;100975.21;;;14.38;30.51
72909;BME280;61051;62.624;17.950;2023-05-28T12:25:05;100965.55;;;14.30;30.25
72909;BME280;61051;62.624;17.950;2023-05-28T12:27:35;100963.79;;;14.33;30.32
72909;BME280;61051;62.624;17.950;2023-05-28T12:30:05;100967.19;;;14.42;29.80
72909;BME280;61051;62.624;17.950;2023-05-28T12:32:34;100979.18;;;14.34;30.26
72909;BME280;61051;62.624;17.950;2023-05-28T12:35:04;100983.39;;;14.25;30.99
72909;BME280;61051;62.624;17.950;2023-05-28T12:37:33;100984.22;;;14.25;29.75
72909;BME280;61051;62.624;17.950;2023-05-28T12:40:01;100981.90;;;14.58;29.95
72909;BME280;61051;62.624;17.950;2023-05-28T12:42:29;100990.14;;;14.92;30.18
72909;BME280;61051;62.624;17.950;2023-05-28T12:44:58;100990.26;;;15.20;30.54
72909;BME280;61051;62.624;17.950;2023-05-28T12:47:26;100988.32;;;15.57;28.58
72909;BME280;61051;62.624;17.950;2023-05-28T12:49:54;100988.37;;;16.53;26.55
72909;BME280;61051;62.624;17.950;2023-05-28T12:52:22;100979.16;;;16.16;27.25
72909;BME280;61051;62.624;17.950;2023-05-28T12:54:51;100990.27;;;16.33;27.93
72909;BME280;61051;62.624;17.950;2023-05-28T12:57:20;100974.00;;;17.10;25.83